Triathlon du Salagou - 10/06/2017

Kids 1 6-9 ans Garçons

46 participants classés


Retour au Sommaire - Signaler une erreur - Faire défiler





1 2 3 /fin /tout

page suivante ->

Pl Do. Nom Prénom Sx-Cat /cat Club TEMPS /sx Trans1 Tps1 Vit1 P1 Trans2 Tps2 Vit2 P2 Tps3 Vit3 P3
1 93 FATTORI LUCA MPO 1   0:08:50.55 1 01:09.4 0:02:07.3 1,4 1 00:49.1 0:02:19.4 12,9 4 0:02:24.3 12,5 1
2 54 FORDERER TIMÉO MPO 2 MAT 0:09:23.47 2 01:15.2 0:02:19.2 1,3 6 00:51.9 0:02:16.5 13,2 3 0:02:41.4 11,1 14
3 73 BOUTONNET MAXIME MPO 3   0:09:30.85 3 01:19.4 0:02:25.4 1,2 12 00:44.3 0:02:26.9 12,3 8 0:02:34.4 11,7 9
4 60 ALIOTTI MATTEO MPO 4 MAT MONTPELLIER 0:09:32.57 4 01:33.9 0:02:12.7 1,4 2 00:47.3 0:02:32.8 11,8 13 0:02:25.4 12,4 3
5 65 HOGIE PIERRE MPO 5 Team Mako Loisir 0:09:36.32 5 01:14.1 0:02:24.2 1,2 10 00:50.7 0:02:32.2 11,8 12 0:02:33.4 11,7 8
6 42 CASASSUS LEO MPO 6 CALVISSON VTT 0:09:50.45 6 01:29.9 0:02:22.0 1,3 9 01:04.2 0:02:20.2 12,8 5 0:02:31.5 11,9 6
7 52 MOURGUES AUGUSTIN MPO 7 LTN ( LOUPIAN TRI NATURE) 0:09:52.67 7 01:48.7 0:02:18.3 1,3 4 00:52.8 0:02:26.1 12,3 7 0:02:25.2 12,4 2
8 55 LEBRETON LEON MPO 8 MAT 0:10:00.04 8 01:09.2 0:02:35.5 1,2 24 00:54.3 0:02:48.0 10,7 18 0:02:32.5 11,8 7
9 70 FONTAINE TIMÉO MPO 9 UZES AC 0:10:00.60 9 01:26.8 0:02:32.0 1,2 17 00:52.5 0:02:28.2 12,1 9 0:02:38.9 11,3 11
10 57 BATAILLE MAXIME MPO 10 MAT MONTPELLIER 0:10:08.27 10 01:24.9 0:02:25.6 1,2 13 00:53.5 0:02:40.0 11,2 16 0:02:44.2 11 18
11 85 BENAZERAF REMY MPO 11   0:10:10.84 11 01:33.0 0:02:35.2 1,2 23 00:56.4 0:02:30.5 12 11 0:02:35.4 11,6 10
12 75 LECLERCQ SIMON MPO 12   0:10:32.86 12 01:58.3 0:02:28.7 1,2 16 00:57.2 0:02:13.3 13,5 2 0:02:54.6 10,3 26
13 77 MICHAUT MAXANCE MPO 13   0:10:37.92 13 01:58.7 0:02:26.1 1,2 14 00:48.9 0:02:34.5 11,7 14 0:02:48.4 10,7 20
14 63 MACQUART ARTHUR MPO 14 TC CARCASSONNE 0:10:45.84 14 01:51.9 0:02:36.6 1,1 26 00:48.7 0:02:58.5 10,1 23 0:02:28.4 12,1 4
15 71 BELMEKKI AMIN MPO 15 WATER POLO MONTPELLIER 0:10:56.59 15 01:51.5 0:02:34.1 1,2 20 00:00.3 0:02:34.8 11,6 15 0:02:56.4 10,2 28
16 84 BASSON MAEL MPO 16   0:10:58.71 16 01:38.2 0:02:18.4 1,3 5 00:57.4 0:02:40.0 11,2 17 0:03:24.4 8,8 41
17 91 COURTIN ROMAIN MPO 17   0:11:03.45 17 01:40.5 0:02:24.7 1,2 11 00:44.2 0:02:28.7 12,1 10 0:03:42.6 8,1 44
18 64 BOUCKÉ SIMON MPO 18 Team LVR 0:11:10.54 18 01:53.1 0:02:40.5 1,1 29 00:58.0 0:02:54.3 10,3 21 0:02:43.5 11 17
19 80 ROSÉ GABRIEL MPO 19   0:11:12.19 19 01:37.5 0:02:34.6 1,2 21 00:57.5 0:03:18.1 9,1 37 0:02:42.3 11,1 15
20 61 BELAFKIH TARIK MPO 20 MONTPELLIER AGGLO TRIATHLON 0:11:20.83 20 01:47.0 0:02:34.9 1,2 22 01:00.2 0:03:15.0 9,2 34 0:02:41.0 11,2 13

Aucun commentaires pour le moment, donnez votre avis, vos impressions avant, pendant! et après la course

Déjà membre? Identifiez-vous pour commenter l'épreuve ou créer un compte